createdAt,value
2023-02-14T00:02:36.606Z,2.20
2023-02-14T00:07:38.229Z,2.23
2023-02-14T00:12:39.737Z,2.10
2023-02-14T00:17:41.188Z,2.08
2023-02-14T00:22:42.675Z,2.30
2023-02-14T00:27:44.383Z,2.21
2023-02-14T00:32:45.872Z,2.28
2023-02-14T00:37:47.394Z,2.12
2023-02-14T00:42:48.912Z,2.33
2023-02-14T00:47:50.446Z,2.28
2023-02-14T00:52:51.976Z,1.71
2023-02-14T00:57:53.452Z,2.04
2023-02-14T01:02:55.053Z,2.22
2023-02-14T01:07:56.598Z,1.93
2023-02-14T01:12:58.391Z,2.09
2023-02-14T01:18:00.602Z,2.25
2023-02-14T01:23:02.715Z,1.96
2023-02-14T01:28:05.035Z,1.95
2023-02-14T01:33:06.597Z,1.78
2023-02-14T01:38:08.159Z,1.87
2023-02-14T01:43:16.062Z,2.12
2023-02-14T01:48:21.177Z,1.90
2023-02-14T01:53:27.336Z,2.01
2023-02-14T01:58:31.407Z,2.13
2023-02-14T02:03:37.088Z,2.01
2023-02-14T02:08:48.757Z,2.00
2023-02-14T02:13:50.385Z,1.93
2023-02-14T02:19:12.037Z,2.28
2023-02-14T02:24:25.667Z,2.29
2023-02-14T02:29:38.773Z,2.38
2023-02-14T02:35:17.807Z,2.21
2023-02-14T02:40:47.302Z,2.38
2023-02-14T02:46:16.715Z,2.22
2023-02-14T02:51:28.010Z,2.31
2023-02-14T02:56:38.002Z,2.43
2023-02-14T03:01:41.208Z,2.42
2023-02-14T03:06:45.284Z,2.44
2023-02-14T03:11:54.475Z,2.42
2023-02-14T03:17:07.257Z,2.42
2023-02-14T03:22:21.008Z,2.43
2023-02-14T03:27:38.960Z,2.40
2023-02-14T03:33:01.687Z,2.23
2023-02-14T03:38:41.821Z,2.32
2023-02-14T03:43:48.454Z,2.27
2023-02-14T03:48:52.688Z,2.30
2023-02-14T03:53:58.063Z,2.10
2023-02-14T03:59:07.150Z,1.72
2023-02-14T04:04:09.720Z,1.90
2023-02-14T04:09:11.232Z,1.97
2023-02-14T04:14:12.701Z,2.02
2023-02-14T04:19:14.218Z,2.15
2023-02-14T04:24:15.800Z,2.17
2023-02-14T04:29:17.291Z,2.14
2023-02-14T04:34:18.796Z,2.07
2023-02-14T04:39:20.432Z,1.70
2023-02-14T04:44:21.954Z,1.49
2023-02-14T04:49:23.461Z,1.88
2023-02-14T04:54:25.374Z,1.95
2023-02-14T04:59:26.881Z,1.74
2023-02-14T05:04:28.345Z,1.77
2023-02-14T05:09:29.895Z,1.54
2023-02-14T05:14:31.299Z,1.50
2023-02-14T05:19:32.691Z,1.56
2023-02-14T05:24:34.158Z,1.57
2023-02-14T05:29:35.644Z,1.45
2023-02-14T05:34:37.164Z,1.48
2023-02-14T05:39:38.650Z,1.43
2023-02-14T05:44:40.143Z,1.51
2023-02-14T05:49:41.638Z,1.46
2023-02-14T05:54:43.124Z,1.56
2023-02-14T05:59:44.578Z,1.40
2023-02-14T06:04:46.232Z,1.42
2023-02-14T06:09:47.776Z,1.48
2023-02-14T06:14:49.341Z,1.42
2023-02-14T06:19:50.953Z,1.36
2023-02-14T06:24:52.405Z,1.62
2023-02-14T06:29:53.919Z,1.65
2023-02-14T06:34:55.463Z,1.77
2023-02-14T06:39:56.948Z,1.76
2023-02-14T06:44:58.553Z,1.81
2023-02-14T06:50:00.057Z,1.89
2023-02-14T06:55:01.524Z,1.81
2023-02-14T07:00:03.450Z,2.08
2023-02-14T07:05:05.183Z,1.98
2023-02-14T07:10:07.186Z,2.09
2023-02-14T07:15:11.520Z,2.20
2023-02-14T07:20:13.574Z,2.12
2023-02-14T07:25:15.092Z,2.34
2023-02-14T07:30:16.773Z,2.37
2023-02-14T07:35:18.546Z,2.59
2023-02-14T07:40:20.427Z,2.77
2023-02-14T07:45:22.694Z,2.75
2023-02-14T07:50:24.314Z,2.99
2023-02-14T07:55:25.847Z,2.56
2023-02-14T08:00:27.855Z,3.00
2023-02-14T08:05:29.668Z,3.06
2023-02-14T08:10:31.376Z,3.34
2023-02-14T08:15:35.140Z,3.46
2023-02-14T08:20:36.691Z,3.42
2023-02-14T08:25:38.449Z,3.40
2023-02-14T08:30:40.621Z,3.59
2023-02-14T08:35:42.375Z,3.81
2023-02-14T08:40:44.688Z,3.81
2023-02-14T08:45:46.294Z,3.97
2023-02-14T08:50:47.797Z,4.00
2023-02-14T08:55:49.542Z,4.12
2023-02-14T09:00:51.182Z,3.70
2023-02-14T09:05:52.726Z,3.60
2023-02-14T09:10:54.271Z,3.80
2023-02-14T09:15:55.814Z,4.00
2023-02-14T09:20:57.959Z,4.01
2023-02-14T09:26:01.082Z,4.12
2023-02-14T09:31:24.370Z,4.04
2023-02-14T09:36:25.995Z,4.15
2023-02-14T09:41:30.474Z,4.27
2023-02-14T09:46:41.664Z,3.89
2023-02-14T09:51:51.390Z,4.17
2023-02-14T09:57:13.431Z,4.40
2023-02-14T10:02:31.979Z,4.65
2023-02-14T10:07:43.646Z,4.80
2023-02-14T10:12:51.549Z,4.47
2023-02-14T10:18:01.873Z,4.65
2023-02-14T10:23:15.018Z,4.71
2023-02-14T10:28:23.685Z,4.87
2023-02-14T10:33:30.750Z,4.90
2023-02-14T10:39:07.814Z,5.05
2023-02-14T10:44:18.107Z,5.06
2023-02-14T10:49:30.532Z,5.03
2023-02-14T10:54:38.250Z,5.19
2023-02-14T10:59:50.923Z,5.36
2023-02-14T11:04:52.842Z,5.15
2023-02-14T11:09:54.391Z,5.23
2023-02-14T11:15:09.118Z,5.31
2023-02-14T11:20:19.843Z,5.24
2023-02-14T11:25:27.085Z,5.25
2023-02-14T11:30:36.366Z,5.38
2023-02-14T11:35:38.776Z,5.41
2023-02-14T11:40:42.072Z,5.50
2023-02-14T11:45:49.087Z,5.49
2023-02-14T11:51:03.724Z,5.37
2023-02-14T11:56:05.704Z,5.34
2023-02-14T12:01:20.893Z,5.37
2023-02-14T12:06:31.023Z,5.48
2023-02-14T12:11:32.477Z,5.43
2023-02-14T12:16:49.046Z,5.57
2023-02-14T12:22:01.086Z,5.70
2023-02-14T12:27:13.479Z,5.53
2023-02-14T12:32:24.628Z,5.55
2023-02-14T12:37:42.519Z,5.63
2023-02-14T12:43:03.324Z,5.72
2023-02-14T12:48:17.002Z,5.70
2023-02-14T12:53:28.731Z,5.83
2023-02-14T12:58:44.823Z,5.86
2023-02-14T13:04:05.047Z,5.44
2023-02-14T13:09:11.774Z,5.32
2023-02-14T13:14:43.750Z,5.34
2023-02-14T13:20:05.866Z,5.37
2023-02-14T13:25:24.140Z,5.47
2023-02-14T13:30:31.003Z,4.85
2023-02-14T13:35:34.121Z,5.40
2023-02-14T13:40:36.454Z,5.46
2023-02-14T13:45:40.693Z,5.13
2023-02-14T13:50:58.645Z,5.05
2023-02-14T13:56:01.103Z,4.93
2023-02-14T14:01:33.411Z,5.01
2023-02-14T14:07:02.848Z,5.05
2023-02-14T14:12:04.435Z,5.01
2023-02-14T14:17:19.950Z,5.19
2023-02-14T14:22:21.762Z,5.09
2023-02-14T14:27:31.825Z,4.37
2023-02-14T14:32:36.513Z,4.17
2023-02-14T14:37:49.085Z,4.22
2023-02-14T14:42:51.650Z,4.60
2023-02-14T14:47:56.284Z,4.85
2023-02-14T14:53:05.600Z,4.87
2023-02-14T14:58:36.295Z,5.01
2023-02-14T15:03:38.244Z,5.01
2023-02-14T15:08:39.733Z,5.15
2023-02-14T15:13:50.998Z,4.76
2023-02-14T15:18:57.721Z,4.57
2023-02-14T15:24:01.444Z,4.83
2023-02-14T15:29:06.192Z,4.96
2023-02-14T15:34:10.022Z,4.64
2023-02-14T15:39:13.027Z,4.31
2023-02-14T15:44:23.388Z,4.27
2023-02-14T15:49:33.248Z,4.19
2023-02-14T15:54:38.969Z,4.39
2023-02-14T15:59:42.440Z,4.37
2023-02-14T16:04:44.615Z,4.03
2023-02-14T16:09:46.732Z,4.34
2023-02-14T16:15:01.876Z,4.53
2023-02-14T16:20:26.094Z,4.47
2023-02-14T16:25:27.572Z,4.33
2023-02-14T16:30:29.139Z,4.33
2023-02-14T16:35:31.095Z,4.28
2023-02-14T16:40:32.628Z,4.24
2023-02-14T16:45:34.015Z,4.29
2023-02-14T16:50:37.894Z,4.19
2023-02-14T16:55:40.272Z,3.95
2023-02-14T17:00:41.672Z,3.75
2023-02-14T17:05:43.565Z,3.83
2023-02-14T17:10:47.646Z,3.83
2023-02-14T17:15:50.103Z,3.92
2023-02-14T17:20:51.712Z,3.94
2023-02-14T17:25:53.214Z,3.89
2023-02-14T17:30:54.843Z,3.97
2023-02-14T17:35:56.540Z,3.97
2023-02-14T17:40:58.350Z,3.85
2023-02-14T17:46:04.415Z,4.26
2023-02-14T17:51:08.361Z,3.74
2023-02-14T17:56:15.410Z,3.78
2023-02-14T18:01:25.182Z,4.06
2023-02-14T18:06:26.791Z,3.91
2023-02-14T18:11:30.897Z,3.92
2023-02-14T18:16:32.462Z,3.80
2023-02-14T18:21:35.900Z,3.18
2023-02-14T18:26:39.678Z,3.97
2023-02-14T18:31:43.177Z,3.89
2023-02-14T18:36:44.670Z,3.91
2023-02-14T18:41:46.134Z,3.90
2023-02-14T18:46:47.585Z,3.77
2023-02-14T18:51:49.093Z,3.72
2023-02-14T18:56:50.609Z,3.93
2023-02-14T19:01:52.218Z,4.02
2023-02-14T19:06:53.687Z,3.66
2023-02-14T19:11:55.475Z,3.87
2023-02-14T19:16:56.927Z,4.04
2023-02-14T19:21:59.577Z,3.86
2023-02-14T19:27:01.143Z,3.79
2023-02-14T19:32:02.730Z,3.72
2023-02-14T19:37:04.277Z,3.94
2023-02-14T19:42:05.861Z,3.97
2023-02-14T19:47:23.396Z,4.01
2023-02-14T19:52:28.749Z,3.90
2023-02-14T19:57:30.239Z,3.95
2023-02-14T20:02:31.732Z,3.84
2023-02-14T20:07:33.330Z,3.91
2023-02-14T20:12:35.046Z,3.94
2023-02-14T20:17:36.567Z,3.99
2023-02-14T20:22:38.145Z,3.85
2023-02-14T20:27:39.701Z,4.01
2023-02-14T20:32:41.437Z,4.15
2023-02-14T20:37:43.021Z,4.02
2023-02-14T20:42:44.512Z,3.82
2023-02-14T20:47:48.961Z,3.79
2023-02-14T20:52:50.628Z,3.94
2023-02-14T20:57:52.088Z,3.88
2023-02-14T21:02:53.835Z,3.83
2023-02-14T21:07:55.453Z,3.98
2023-02-14T21:12:56.905Z,3.88
2023-02-14T21:17:58.459Z,3.63
2023-02-14T21:22:59.913Z,3.91
2023-02-14T21:28:01.388Z,3.55
2023-02-14T21:33:03.011Z,3.90
2023-02-14T21:38:04.586Z,3.72
2023-02-14T21:43:06.074Z,3.92
2023-02-14T21:48:07.744Z,3.83
2023-02-14T21:53:09.308Z,3.84
2023-02-14T21:58:10.906Z,3.93
2023-02-14T22:03:13.251Z,3.77
2023-02-14T22:08:14.990Z,3.36
2023-02-14T22:13:16.667Z,3.46
2023-02-14T22:18:18.482Z,3.81
2023-02-14T22:23:20.076Z,3.61
2023-02-14T22:28:21.582Z,3.67
2023-02-14T22:33:23.119Z,3.74
2023-02-14T22:38:25.237Z,3.77
2023-02-14T22:43:29.778Z,3.85
2023-02-14T22:48:33.473Z,3.65
2023-02-14T22:53:35.122Z,3.67
2023-02-14T22:58:37.079Z,3.75
2023-02-14T23:03:38.607Z,3.67
2023-02-14T23:08:44.939Z,3.76
2023-02-14T23:13:46.495Z,3.84
2023-02-14T23:18:48.074Z,3.76
2023-02-14T23:23:52.461Z,3.64
2023-02-14T23:28:54.126Z,3.65
2023-02-14T23:33:55.840Z,3.45
2023-02-14T23:38:57.698Z,3.55
2023-02-14T23:43:59.171Z,2.78
2023-02-14T23:49:00.810Z,3.29
2023-02-14T23:54:02.645Z,3.42
2023-02-14T23:59:05.700Z,3.60
